createdAt,value
2023-03-06T00:00:18.674Z,1007.62
2023-03-06T00:00:50.743Z,1007.62
2023-03-06T00:01:20.358Z,1007.52
2023-03-06T00:01:51.082Z,1007.52
2023-03-06T00:02:21.742Z,1007.62
2023-03-06T00:02:53.103Z,1007.62
2023-03-06T00:03:23.509Z,1007.62
2023-03-06T00:03:55.645Z,1007.62
2023-03-06T00:04:25.443Z,1007.52
2023-03-06T00:04:57.158Z,1007.52
2023-03-06T00:05:28.854Z,1007.42
2023-03-06T00:05:59.471Z,1007.42
2023-03-06T00:06:29.386Z,1007.52
2023-03-06T00:07:01.184Z,1007.52
2023-03-06T00:07:31.501Z,1007.52
2023-03-06T00:08:03.468Z,1007.52
2023-03-06T00:08:33.433Z,1007.21
2023-03-06T00:09:05.121Z,1007.31
2023-03-06T00:09:35.433Z,1007.31
2023-03-06T00:10:07.283Z,1007.42
2023-03-06T00:10:39.393Z,1007.42
2023-03-06T00:11:08.433Z,1007.42
2023-03-06T00:11:39.399Z,1007.42
2023-03-06T00:12:11.157Z,1007.42
2023-03-06T00:12:41.369Z,1007.42
2023-03-06T00:13:13.120Z,1007.21
2023-03-06T00:13:43.645Z,1007.21
2023-03-06T00:14:15.161Z,1007.21
2023-03-06T00:14:45.958Z,1007.21
2023-03-06T00:15:17.129Z,1007.31
2023-03-06T00:15:49.338Z,1007.31
2023-03-06T00:16:19.843Z,1007.31
2023-03-06T00:16:49.478Z,1007.31
2023-03-06T00:17:21.748Z,1007.21
2023-03-06T00:17:51.469Z,1007.21
2023-03-06T00:18:23.117Z,1007.52
2023-03-06T00:18:53.416Z,1007.52
2023-03-06T00:19:25.095Z,1007.31
2023-03-06T00:19:55.436Z,1007.31
2023-03-06T00:20:34.705Z,1007.21
2023-03-06T00:20:58.436Z,1007.21
2023-03-06T00:21:29.203Z,1007.31
2023-03-06T00:21:59.354Z,1007.31
2023-03-06T00:22:31.072Z,1007.62
2023-03-06T00:23:01.589Z,1007.62
2023-03-06T00:23:33.202Z,1007.42
2023-03-06T00:24:03.484Z,1007.42
2023-03-06T00:24:35.244Z,1007.42
2023-03-06T00:25:05.654Z,1007.21
2023-03-06T00:25:37.775Z,1007.21
2023-03-06T00:26:08.405Z,1007.21
2023-03-06T00:26:39.361Z,1007.21
2023-03-06T00:27:09.376Z,1007.21
2023-03-06T00:27:41.104Z,1007.21
2023-03-06T00:28:12.103Z,1007.42
2023-03-06T00:28:43.126Z,1007.42
2023-03-06T00:29:13.381Z,1007.42
2023-03-06T00:29:45.100Z,1007.42
2023-03-06T00:30:16.308Z,1007.21
2023-03-06T00:30:47.808Z,1007.21
2023-03-06T00:31:18.452Z,1007.11
2023-03-06T00:31:49.333Z,1007.11
2023-03-06T00:32:19.495Z,1007.21
2023-03-06T00:32:51.071Z,1007.21
2023-03-06T00:33:21.404Z,1007.21
2023-03-06T00:33:53.145Z,1007.21
2023-03-06T00:34:23.441Z,1007.31
2023-03-06T00:34:55.252Z,1007.31
2023-03-06T00:35:25.887Z,1007.11
2023-03-06T00:35:57.369Z,1007.11
2023-03-06T00:36:28.412Z,1007.11
2023-03-06T00:36:59.418Z,1007.11
2023-03-06T00:37:29.423Z,1007.31
2023-03-06T00:38:01.361Z,1007.31
2023-03-06T00:38:31.414Z,1007.21
2023-03-06T00:39:03.496Z,1007.21
2023-03-06T00:39:33.449Z,1007.21
2023-03-06T00:40:06.901Z,1007.31
2023-03-06T00:40:40.918Z,1007.31
2023-03-06T00:41:07.370Z,1007.21
2023-03-06T00:41:38.377Z,1007.21
2023-03-06T00:42:09.114Z,1007.21
2023-03-06T00:42:39.367Z,1007.21
2023-03-06T00:43:11.285Z,1007.01
2023-03-06T00:43:41.396Z,1007.01
2023-03-06T00:44:13.817Z,1007.31
2023-03-06T00:44:43.471Z,1007.31
2023-03-06T00:45:16.336Z,1007.01
2023-03-06T00:45:45.502Z,1007.01
2023-03-06T00:46:17.076Z,1007.21
2023-03-06T00:46:48.387Z,1007.21
2023-03-06T00:47:19.487Z,1007.01
2023-03-06T00:47:49.375Z,1007.01
2023-03-06T00:48:21.049Z,1007.21
2023-03-06T00:48:51.484Z,1007.21
2023-03-06T00:49:23.079Z,1007.21
2023-03-06T00:49:53.394Z,1007.21
2023-03-06T00:50:25.623Z,1007.11
2023-03-06T00:50:55.395Z,1007.11
2023-03-06T00:51:27.157Z,1007.11
2023-03-06T00:51:58.378Z,1007.11
2023-03-06T00:52:29.133Z,1007.11
2023-03-06T00:52:59.419Z,1007.11
2023-03-06T00:53:31.377Z,1007.11
2023-03-06T00:54:01.615Z,1007.11
2023-03-06T00:54:33.125Z,1007.11
2023-03-06T00:55:04.585Z,1007.01
2023-03-06T00:55:35.129Z,1007.01
2023-03-06T00:56:05.499Z,1006.94
2023-03-06T00:56:37.176Z,1006.94
2023-03-06T00:57:08.533Z,1007.11
2023-03-06T00:57:39.894Z,1007.11
2023-03-06T00:58:09.711Z,1007.01
2023-03-06T00:58:41.072Z,1007.01
2023-03-06T00:59:11.382Z,1007.11
2023-03-06T00:59:43.106Z,1007.11
2023-03-06T01:00:15.685Z,1007.01
2023-03-06T01:00:46.733Z,1007.01
2023-03-06T01:01:15.498Z,1007.01
2023-03-06T01:01:47.258Z,1007.01
2023-03-06T01:02:18.627Z,1007.01
2023-03-06T01:02:49.099Z,1007.01
2023-03-06T01:03:19.443Z,1006.94
2023-03-06T01:03:51.212Z,1006.94
2023-03-06T01:04:21.444Z,1006.94
2023-03-06T01:04:53.120Z,1006.94
2023-03-06T01:05:23.890Z,1007.11
2023-03-06T01:05:55.082Z,1007.11
2023-03-06T01:06:25.572Z,1007.01
2023-03-06T01:06:57.257Z,1007.01
2023-03-06T01:07:28.472Z,1006.94
2023-03-06T01:07:59.446Z,1006.94
2023-03-06T01:08:29.978Z,1006.84
2023-03-06T01:09:01.277Z,1006.84
2023-03-06T01:09:31.454Z,1006.74
2023-03-06T01:10:03.698Z,1006.74
2023-03-06T01:10:33.473Z,1006.84
2023-03-06T01:11:04.583Z,1006.84
2023-03-06T01:11:35.520Z,1006.84
2023-03-06T01:12:07.119Z,1006.64
2023-03-06T01:12:38.447Z,1006.64
2023-03-06T01:13:09.345Z,1006.74
2023-03-06T01:13:39.432Z,1006.74
2023-03-06T01:14:11.126Z,1006.64
2023-03-06T01:14:41.420Z,1006.64
2023-03-06T01:15:14.585Z,1006.64
2023-03-06T01:15:43.484Z,1006.64
2023-03-06T01:16:15.220Z,1006.74
2023-03-06T01:16:45.624Z,1006.74
2023-03-06T01:17:17.153Z,1006.64
2023-03-06T01:17:48.990Z,1006.64
2023-03-06T01:18:20.073Z,1006.74
2023-03-06T01:18:49.478Z,1006.74
2023-03-06T01:19:21.103Z,1006.64
2023-03-06T01:19:51.455Z,1006.64
2023-03-06T01:20:23.812Z,1006.43
2023-03-06T01:20:53.430Z,1006.43
2023-03-06T01:21:25.128Z,1006.53
2023-03-06T01:21:56.029Z,1006.53
2023-03-06T01:22:27.357Z,1006.43
2023-03-06T01:22:58.425Z,1006.43
2023-03-06T01:23:29.108Z,1006.53
2023-03-06T01:23:59.438Z,1006.53
2023-03-06T01:24:31.656Z,1006.53
2023-03-06T01:25:02.084Z,1006.53
2023-03-06T01:25:33.105Z,1006.53
2023-03-06T01:26:03.505Z,1006.23
2023-03-06T01:26:35.409Z,1006.23
2023-03-06T01:27:05.893Z,1006.43
2023-03-06T01:27:37.340Z,1006.43
2023-03-06T01:28:08.462Z,1006.64
2023-03-06T01:28:39.466Z,1006.64
2023-03-06T01:29:09.530Z,1006.43
2023-03-06T01:29:41.130Z,1006.43
2023-03-06T01:30:12.212Z,1006.43
2023-03-06T01:30:43.146Z,1006.43
2023-03-06T01:31:13.377Z,1006.43
2023-03-06T01:31:45.197Z,1006.43
2023-03-06T01:32:15.441Z,1006.53
2023-03-06T01:32:47.088Z,1006.53
2023-03-06T01:33:18.490Z,1006.33
2023-03-06T01:33:49.069Z,1006.33
2023-03-06T01:34:19.400Z,1006.23
2023-03-06T01:34:51.114Z,1006.23
2023-03-06T01:35:22.572Z,1006.33
2023-03-06T01:35:53.183Z,1006.33
2023-03-06T01:36:23.442Z,1006.13
2023-03-06T01:36:55.121Z,1006.13
2023-03-06T01:37:25.403Z,1006.33
2023-03-06T01:37:57.834Z,1006.33
2023-03-06T01:38:28.421Z,1006.33
2023-03-06T01:38:59.378Z,1006.33
2023-03-06T01:39:29.402Z,1006.43
2023-03-06T01:40:01.549Z,1006.43
2023-03-06T01:40:37.800Z,1006.33
2023-03-06T01:41:03.092Z,1006.33
2023-03-06T01:41:33.384Z,1006.53
2023-03-06T01:42:05.199Z,1006.13
2023-03-06T01:42:35.408Z,1006.13
2023-03-06T01:43:07.232Z,1006.23
2023-03-06T01:43:38.364Z,1006.23
2023-03-06T01:44:09.065Z,1006.33
2023-03-06T01:44:39.504Z,1006.33
2023-03-06T01:45:11.978Z,1006.33
2023-03-06T01:45:41.462Z,1006.33
2023-03-06T01:46:13.382Z,1006.33
2023-03-06T01:46:43.410Z,1006.33
2023-03-06T01:47:15.070Z,1006.13
2023-03-06T01:47:45.416Z,1006.13
2023-03-06T01:48:17.091Z,1006.23
2023-03-06T01:48:48.352Z,1006.23
2023-03-06T01:49:19.361Z,1006.13
2023-03-06T01:49:49.363Z,1006.13
2023-03-06T01:50:21.506Z,1006.33
2023-03-06T01:50:51.381Z,1006.33
2023-03-06T01:51:23.673Z,1006.13
2023-03-06T01:51:53.347Z,1006.13
2023-03-06T01:52:25.187Z,1006.23
2023-03-06T01:52:55.398Z,1006.23
2023-03-06T01:53:27.188Z,1006.13
2023-03-06T01:53:58.438Z,1006.13
2023-03-06T01:54:29.081Z,1006.13
2023-03-06T01:54:59.387Z,1006.13
2023-03-06T01:55:31.678Z,1006.23
2023-03-06T01:56:01.382Z,1006.23
2023-03-06T01:56:33.076Z,1006.23
2023-03-06T01:57:03.472Z,1006.23
2023-03-06T01:57:35.085Z,1006.23
2023-03-06T01:58:05.399Z,1006.33
2023-03-06T01:58:37.174Z,1006.33
2023-03-06T01:59:08.367Z,1006.03
2023-03-06T01:59:39.366Z,1006.03
2023-03-06T02:00:10.817Z,1006.13
2023-03-06T02:00:49.722Z,1006.13
2023-03-06T02:01:11.391Z,1006.13
2023-03-06T02:01:43.086Z,1006.13
2023-03-06T02:02:13.881Z,1006.33
2023-03-06T02:02:45.081Z,1006.33
2023-03-06T02:03:15.517Z,1006.03
2023-03-06T02:03:47.228Z,1006.03
2023-03-06T02:04:18.353Z,1006.03
2023-03-06T02:04:49.101Z,1006.03
2023-03-06T02:05:19.836Z,1006.03
2023-03-06T02:05:51.129Z,1006.03
2023-03-06T02:06:21.379Z,1005.93
2023-03-06T02:06:53.169Z,1005.93
2023-03-06T02:07:23.371Z,1006.03
2023-03-06T02:07:55.114Z,1006.03
2023-03-06T02:08:25.383Z,1006.03
2023-03-06T02:08:57.378Z,1006.03
2023-03-06T02:09:28.359Z,1006.13
2023-03-06T02:09:59.351Z,1006.13
2023-03-06T02:10:29.821Z,1005.82
2023-03-06T02:11:01.110Z,1005.82
2023-03-06T02:11:31.386Z,1006.03
2023-03-06T02:12:02.657Z,1006.03
2023-03-06T02:12:34.085Z,1005.82
2023-03-06T02:13:04.434Z,1006.13
2023-03-06T02:13:36.093Z,1006.13
2023-03-06T02:14:06.413Z,1005.62
2023-03-06T02:14:39.058Z,1005.62
2023-03-06T02:15:09.184Z,1006.03
2023-03-06T02:15:40.342Z,1006.03
2023-03-06T02:16:10.415Z,1006.13
2023-03-06T02:16:42.213Z,1006.13
2023-03-06T02:17:12.423Z,1005.82
2023-03-06T02:17:44.104Z,1005.82
2023-03-06T02:18:14.446Z,1005.82
2023-03-06T02:18:46.057Z,1005.82
2023-03-06T02:19:16.445Z,1005.82
2023-03-06T02:19:49.107Z,1005.82
2023-03-06T02:20:23.940Z,1005.82
2023-03-06T02:20:50.092Z,1005.82
2023-03-06T02:21:20.420Z,1005.82
2023-03-06T02:21:52.076Z,1005.82
2023-03-06T02:22:22.884Z,1005.82
2023-03-06T02:22:54.060Z,1005.82
2023-03-06T02:23:24.357Z,1005.82
2023-03-06T02:23:56.095Z,1005.82
2023-03-06T02:24:26.366Z,1005.82
2023-03-06T02:24:59.380Z,1005.82
2023-03-06T02:25:28.839Z,1005.82
2023-03-06T02:26:00.102Z,1005.82
2023-03-06T02:26:30.378Z,1005.62
2023-03-06T02:27:02.389Z,1005.62
2023-03-06T02:27:32.527Z,1005.72
2023-03-06T02:28:04.180Z,1005.62
2023-03-06T02:28:34.377Z,1005.62
2023-03-06T02:29:06.448Z,1005.62
2023-03-06T02:29:36.440Z,1005.62
2023-03-06T02:30:10.863Z,1005.52
2023-03-06T02:30:38.852Z,1005.52
2023-03-06T02:31:10.099Z,1005.72
2023-03-06T02:31:40.403Z,1005.72
2023-03-06T02:32:12.180Z,1005.42
2023-03-06T02:32:42.388Z,1005.42
2023-03-06T02:33:14.103Z,1005.32
2023-03-06T02:33:44.364Z,1005.32
2023-03-06T02:34:16.190Z,1005.72
2023-03-06T02:34:46.489Z,1005.72
2023-03-06T02:35:19.779Z,1005.42
2023-03-06T02:35:48.919Z,1005.42
2023-03-06T02:36:20.086Z,1005.82
2023-03-06T02:36:50.425Z,1005.82
2023-03-06T02:37:22.098Z,1005.72
2023-03-06T02:37:52.382Z,1005.72
2023-03-06T02:38:24.083Z,1005.52
2023-03-06T02:38:54.355Z,1005.52
2023-03-06T02:39:26.082Z,1005.72
2023-03-06T02:39:56.469Z,1005.72
2023-03-06T02:40:37.093Z,1005.72
2023-03-06T02:40:58.765Z,1005.72
2023-03-06T02:41:30.069Z,1005.62
2023-03-06T02:42:00.416Z,1005.62
2023-03-06T02:42:32.387Z,1005.52
2023-03-06T02:43:02.391Z,1005.52
2023-03-06T02:43:34.665Z,1005.52
2023-03-06T02:44:04.579Z,1005.62
2023-03-06T02:44:36.354Z,1005.62
2023-03-06T02:45:08.051Z,1005.52
2023-03-06T02:45:39.136Z,1005.52
2023-03-06T02:46:08.520Z,1005.62
2023-03-06T02:46:40.095Z,1005.62
2023-03-06T02:47:10.403Z,1005.52
2023-03-06T02:47:42.125Z,1005.52
2023-03-06T02:48:12.396Z,1005.42
2023-03-06T02:48:44.190Z,1005.42
2023-03-06T02:49:14.962Z,1005.72
2023-03-06T02:49:46.053Z,1005.72
2023-03-06T02:50:16.829Z,1005.52
2023-03-06T02:50:49.038Z,1005.52
2023-03-06T02:51:19.374Z,1005.42
2023-03-06T02:51:50.084Z,1005.42
2023-03-06T02:52:20.381Z,1005.32
2023-03-06T02:52:52.047Z,1005.32
2023-03-06T02:53:22.336Z,1005.32
2023-03-06T02:53:54.064Z,1005.32
2023-03-06T02:54:24.563Z,1005.42
2023-03-06T02:54:56.047Z,1005.42
2023-03-06T02:55:26.776Z,1005.42
2023-03-06T02:55:59.078Z,1005.42
2023-03-06T02:56:28.335Z,1005.32
2023-03-06T02:57:00.142Z,1005.32
2023-03-06T02:57:30.356Z,1005.42
2023-03-06T02:58:02.072Z,1005.42
2023-03-06T02:58:32.380Z,1005.42
2023-03-06T02:59:04.193Z,1005.42
2023-03-06T02:59:34.413Z,1005.42
2023-03-06T03:00:08.015Z,1005.52
2023-03-06T03:00:37.422Z,1005.52
2023-03-06T03:01:09.146Z,1005.62
2023-03-06T03:01:38.900Z,1005.62
2023-03-06T03:02:10.135Z,1005.32
2023-03-06T03:02:41.081Z,1005.32
2023-03-06T03:03:12.088Z,1005.42
2023-03-06T03:03:42.771Z,1005.42
2023-03-06T03:04:14.438Z,1005.42
2023-03-06T03:04:44.360Z,1005.42
2023-03-06T03:05:17.903Z,1005.32
2023-03-06T03:05:46.822Z,1005.32
2023-03-06T03:06:19.069Z,1005.32
2023-03-06T03:06:48.822Z,1005.32
2023-03-06T03:07:20.289Z,1005.21
2023-03-06T03:07:50.385Z,1005.21
2023-03-06T03:08:22.410Z,1005.32
2023-03-06T03:08:52.347Z,1005.32
2023-03-06T03:09:24.460Z,1005.32
2023-03-06T03:09:54.378Z,1005.32
2023-03-06T03:10:26.480Z,1005.32
2023-03-06T03:10:56.352Z,1005.32
2023-03-06T03:11:28.329Z,1005.42
2023-03-06T03:11:58.712Z,1005.42
2023-03-06T03:12:30.083Z,1005.52
2023-03-06T03:13:00.407Z,1005.52
2023-03-06T03:13:32.030Z,1005.32
2023-03-06T03:14:02.672Z,1005.32
2023-03-06T03:14:34.085Z,1005.52
2023-03-06T03:15:05.653Z,1005.42
2023-03-06T03:15:36.405Z,1005.42
2023-03-06T03:16:07.096Z,1005.11
2023-03-06T03:16:39.334Z,1005.11
2023-03-06T03:17:08.365Z,1005.42
2023-03-06T03:17:40.084Z,1005.42
2023-03-06T03:18:10.386Z,1005.32
2023-03-06T03:18:42.030Z,1005.32
2023-03-06T03:19:12.348Z,1005.42
2023-03-06T03:19:44.088Z,1005.42
2023-03-06T03:20:15.073Z,1005.42
2023-03-06T03:20:47.449Z,1005.42
2023-03-06T03:21:16.330Z,1005.01
2023-03-06T03:21:49.020Z,1005.01
2023-03-06T03:22:19.027Z,1005.11
2023-03-06T03:22:50.653Z,1005.11
2023-03-06T03:23:20.346Z,1005.01
2023-03-06T03:23:52.025Z,1005.01
2023-03-06T03:24:22.385Z,1004.91
2023-03-06T03:24:54.102Z,1004.91
2023-03-06T03:25:24.760Z,1005.11
2023-03-06T03:25:56.037Z,1005.11
2023-03-06T03:26:26.347Z,1005.11
2023-03-06T03:26:59.053Z,1005.11
2023-03-06T03:27:28.386Z,1005.01
2023-03-06T03:28:00.045Z,1005.01
2023-03-06T03:28:30.451Z,1005.11
2023-03-06T03:29:02.109Z,1005.11
2023-03-06T03:29:32.413Z,1005.01
2023-03-06T03:30:05.380Z,1005.42
2023-03-06T03:30:34.466Z,1005.42
2023-03-06T03:31:06.095Z,1005.01
2023-03-06T03:31:36.381Z,1005.01
2023-03-06T03:32:09.636Z,1005.01
2023-03-06T03:32:38.634Z,1005.01
2023-03-06T03:33:10.015Z,1005.01
2023-03-06T03:33:40.495Z,1005.01
2023-03-06T03:34:12.129Z,1004.91
2023-03-06T03:34:42.347Z,1004.91
2023-03-06T03:35:14.453Z,1004.91
2023-03-06T03:35:44.392Z,1004.91
2023-03-06T03:36:16.502Z,1005.21
2023-03-06T03:36:46.394Z,1005.21
2023-03-06T03:37:19.062Z,1004.91
2023-03-06T03:37:48.352Z,1004.91
2023-03-06T03:38:20.120Z,1005.01
2023-03-06T03:38:50.358Z,1005.01
2023-03-06T03:39:22.273Z,1005.11
2023-03-06T03:39:52.346Z,1005.11
2023-03-06T03:40:24.579Z,1005.01
2023-03-06T03:40:54.342Z,1005.01
2023-03-06T03:41:26.033Z,1005.01
2023-03-06T03:41:56.340Z,1005.01
2023-03-06T03:42:29.094Z,1004.84
2023-03-06T03:42:59.224Z,1004.84
2023-03-06T03:43:30.070Z,1005.01
2023-03-06T03:44:00.337Z,1005.01
2023-03-06T03:44:32.077Z,1005.11
2023-03-06T03:45:02.489Z,1005.11
2023-03-06T03:45:35.478Z,1005.01
2023-03-06T03:46:04.452Z,1005.11
2023-03-06T03:46:36.264Z,1005.11
2023-03-06T03:47:06.838Z,1004.74
2023-03-06T03:47:39.036Z,1004.74
2023-03-06T03:48:08.334Z,1004.84
2023-03-06T03:48:40.048Z,1004.84
2023-03-06T03:49:10.390Z,1004.84
2023-03-06T03:49:42.546Z,1004.84
2023-03-06T03:50:12.972Z,1005.01
2023-03-06T03:50:44.080Z,1005.01
2023-03-06T03:51:14.357Z,1004.74
2023-03-06T03:51:46.053Z,1004.74
2023-03-06T03:52:16.365Z,1004.84
2023-03-06T03:52:49.010Z,1004.84
2023-03-06T03:53:19.076Z,1004.64
2023-03-06T03:53:50.069Z,1004.64
2023-03-06T03:54:20.366Z,1004.74
2023-03-06T03:54:52.050Z,1004.74
2023-03-06T03:55:22.858Z,1004.84
2023-03-06T03:55:54.043Z,1004.84
2023-03-06T03:56:24.317Z,1004.74
2023-03-06T03:56:56.037Z,1004.74
2023-03-06T03:57:26.333Z,1004.91
2023-03-06T03:57:59.103Z,1004.91
2023-03-06T03:58:28.365Z,1004.64
2023-03-06T03:59:00.033Z,1004.64
2023-03-06T03:59:30.347Z,1004.64
2023-03-06T04:00:02.342Z,1004.64
2023-03-06T04:00:34.400Z,1004.74
2023-03-06T04:01:04.343Z,1004.91
2023-03-06T04:01:34.442Z,1004.91
2023-03-06T04:02:06.194Z,1004.54
2023-03-06T04:02:36.462Z,1004.54
2023-03-06T04:03:09.079Z,1004.84
2023-03-06T04:03:38.770Z,1004.84
2023-03-06T04:04:10.153Z,1004.74
2023-03-06T04:04:40.463Z,1004.74
2023-03-06T04:05:12.689Z,1004.74
2023-03-06T04:05:42.443Z,1004.74
2023-03-06T04:06:14.275Z,1004.74
2023-03-06T04:06:44.434Z,1004.74
2023-03-06T04:07:16.157Z,1004.84
2023-03-06T04:07:46.523Z,1004.84
2023-03-06T04:08:19.099Z,1004.64
2023-03-06T04:08:48.670Z,1004.64
2023-03-06T04:09:20.163Z,1004.74
2023-03-06T04:09:50.396Z,1004.74
2023-03-06T04:10:22.482Z,1004.74
2023-03-06T04:10:52.357Z,1004.74
2023-03-06T04:11:23.375Z,1004.54
2023-03-06T04:11:54.364Z,1004.54
2023-03-06T04:12:26.270Z,1004.64
2023-03-06T04:12:56.399Z,1004.64
2023-03-06T04:13:29.048Z,1004.64
2023-03-06T04:13:58.664Z,1004.64
2023-03-06T04:14:30.106Z,1004.54
2023-03-06T04:15:00.436Z,1004.54
2023-03-06T04:15:32.835Z,1004.44
2023-03-06T04:16:02.506Z,1004.44
2023-03-06T04:16:34.971Z,1004.54
2023-03-06T04:17:04.625Z,1004.74
2023-03-06T04:17:36.203Z,1004.74
2023-03-06T04:18:06.546Z,1004.64
2023-03-06T04:18:39.073Z,1004.64
2023-03-06T04:19:08.383Z,1004.64
2023-03-06T04:19:40.227Z,1004.64
2023-03-06T04:20:11.136Z,1004.74
2023-03-06T04:20:42.160Z,1004.74
2023-03-06T04:21:12.417Z,1004.54
2023-03-06T04:21:44.104Z,1004.54
2023-03-06T04:22:14.605Z,1004.64
2023-03-06T04:22:46.032Z,1004.64
2023-03-06T04:23:16.419Z,1004.74
2023-03-06T04:23:49.187Z,1004.74
2023-03-06T04:24:19.234Z,1004.64
2023-03-06T04:24:50.187Z,1004.64
2023-03-06T04:25:20.849Z,1004.44
2023-03-06T04:25:52.110Z,1004.44
2023-03-06T04:26:22.579Z,1004.44
2023-03-06T04:26:54.127Z,1004.44
2023-03-06T04:27:24.710Z,1004.64
2023-03-06T04:27:56.308Z,1004.64
2023-03-06T04:28:26.396Z,1004.54
2023-03-06T04:28:59.066Z,1004.54
2023-03-06T04:29:28.336Z,1004.74
2023-03-06T04:30:01.406Z,1004.74
2023-03-06T04:30:31.157Z,1004.44
2023-03-06T04:31:02.203Z,1004.44
2023-03-06T04:31:32.368Z,1004.64
2023-03-06T04:32:04.167Z,1004.44
2023-03-06T04:32:34.410Z,1004.44
2023-03-06T04:33:06.176Z,1004.74
2023-03-06T04:33:36.399Z,1004.74
2023-03-06T04:34:09.092Z,1004.44
2023-03-06T04:34:38.611Z,1004.44
2023-03-06T04:35:10.403Z,1004.44
2023-03-06T04:35:40.465Z,1004.44
2023-03-06T04:36:12.046Z,1004.33
2023-03-06T04:36:42.369Z,1004.33
2023-03-06T04:37:14.056Z,1004.64
2023-03-06T04:37:44.328Z,1004.64
2023-03-06T04:38:16.026Z,1004.33
2023-03-06T04:38:46.447Z,1004.33
2023-03-06T04:39:19.583Z,1004.33
2023-03-06T04:39:48.420Z,1004.33
2023-03-06T04:40:20.545Z,1004.44
2023-03-06T04:40:50.819Z,1004.44
2023-03-06T04:41:22.515Z,1004.33
2023-03-06T04:41:52.301Z,1004.33
2023-03-06T04:42:24.052Z,1004.33
2023-03-06T04:42:54.334Z,1004.33
2023-03-06T04:43:26.633Z,1004.33
2023-03-06T04:43:56.324Z,1004.33
2023-03-06T04:44:29.011Z,1004.13
2023-03-06T04:44:58.618Z,1004.13
2023-03-06T04:45:30.856Z,1004.54
2023-03-06T04:46:00.523Z,1004.54
2023-03-06T04:46:32.037Z,1004.33
2023-03-06T04:47:02.324Z,1004.33
2023-03-06T04:47:34.343Z,1004.23
2023-03-06T04:48:04.372Z,1004.23
2023-03-06T04:48:36.283Z,1004.23
2023-03-06T04:49:06.369Z,1004.33
2023-03-06T04:49:39.036Z,1004.33
2023-03-06T04:50:09.351Z,1004.13
2023-03-06T04:50:40.053Z,1004.13
2023-03-06T04:51:10.351Z,1004.23
2023-03-06T04:51:42.181Z,1004.23
2023-03-06T04:52:12.330Z,1004.33
2023-03-06T04:52:45.547Z,1004.33
2023-03-06T04:53:14.360Z,1004.23
2023-03-06T04:53:46.523Z,1004.23
2023-03-06T04:54:18.947Z,1004.44
2023-03-06T04:54:49.029Z,1004.44
2023-03-06T04:55:19.601Z,1004.33
2023-03-06T04:55:50.015Z,1004.33
2023-03-06T04:56:20.385Z,1004.33
2023-03-06T04:56:52.736Z,1004.33
2023-03-06T04:57:22.405Z,1004.23
2023-03-06T04:57:54.042Z,1004.23
2023-03-06T04:58:24.333Z,1004.23
2023-03-06T04:58:56.063Z,1004.23
2023-03-06T04:59:26.309Z,1004.13
2023-03-06T04:59:59.014Z,1004.13
2023-03-06T05:00:29.886Z,1004.33
2023-03-06T05:01:01.060Z,1004.33
2023-03-06T05:01:30.355Z,1004.33
2023-03-06T05:02:02.148Z,1004.33
2023-03-06T05:02:32.576Z,1004.23
2023-03-06T05:03:04.220Z,1004.23
2023-03-06T05:03:34.426Z,1004.23
2023-03-06T05:04:06.086Z,1004.13
2023-03-06T05:04:36.445Z,1004.13
2023-03-06T05:05:09.418Z,1004.13
2023-03-06T05:05:38.660Z,1004.13
2023-03-06T05:06:10.042Z,1004.23
2023-03-06T05:06:40.372Z,1004.23
2023-03-06T05:07:12.092Z,1004.13
2023-03-06T05:07:42.740Z,1004.13
2023-03-06T05:08:14.130Z,1004.44
2023-03-06T05:08:44.394Z,1004.44
2023-03-06T05:09:16.093Z,1004.13
2023-03-06T05:09:46.347Z,1004.13
2023-03-06T05:10:19.541Z,1004.23
2023-03-06T05:10:48.393Z,1004.23
2023-03-06T05:11:19.338Z,1004.23
2023-03-06T05:11:50.376Z,1004.23
2023-03-06T05:12:22.973Z,1004.33
2023-03-06T05:12:52.362Z,1004.33
2023-03-06T05:13:24.071Z,1004.23
2023-03-06T05:13:54.360Z,1004.23
2023-03-06T05:14:26.081Z,1004.13
2023-03-06T05:14:56.371Z,1004.13
2023-03-06T05:15:30.384Z,1004.23
2023-03-06T05:15:58.749Z,1004.23
2023-03-06T05:16:30.104Z,1004.13
2023-03-06T05:17:00.330Z,1004.13
2023-03-06T05:17:32.062Z,1004.03
2023-03-06T05:18:02.350Z,1004.03
2023-03-06T05:18:34.058Z,1004.03
2023-03-06T05:19:04.372Z,1004.23
2023-03-06T05:19:36.090Z,1004.23
2023-03-06T05:20:06.937Z,1004.23
2023-03-06T05:20:39.272Z,1004.23
2023-03-06T05:21:08.845Z,1004.23
2023-03-06T05:21:40.032Z,1004.23
2023-03-06T05:22:10.322Z,1004.13
2023-03-06T05:22:42.023Z,1004.13
2023-03-06T05:23:12.356Z,1004.13
2023-03-06T05:23:44.586Z,1004.13
2023-03-06T05:24:14.407Z,1004.13
2023-03-06T05:24:46.199Z,1004.13
2023-03-06T05:25:16.854Z,1004.03
2023-03-06T05:25:49.012Z,1004.03
2023-03-06T05:26:19.034Z,1004.13
2023-03-06T05:26:50.233Z,1004.13
2023-03-06T05:27:20.410Z,1004.13
2023-03-06T05:27:52.062Z,1004.13
2023-03-06T05:28:22.347Z,1004.13
2023-03-06T05:28:54.092Z,1004.13
2023-03-06T05:29:24.337Z,1004.23
2023-03-06T05:29:56.047Z,1004.23
2023-03-06T05:30:27.990Z,1004.33
2023-03-06T05:30:59.078Z,1004.33
2023-03-06T05:31:28.420Z,1003.93
2023-03-06T05:32:00.193Z,1003.93
2023-03-06T05:32:30.441Z,1004.13
2023-03-06T05:33:02.113Z,1004.13
2023-03-06T05:33:32.306Z,1004.13
2023-03-06T05:34:04.149Z,1004.23
2023-03-06T05:34:34.922Z,1004.23
2023-03-06T05:35:06.675Z,1004.13
2023-03-06T05:35:36.611Z,1004.13
2023-03-06T05:36:09.003Z,1004.23
2023-03-06T05:36:38.641Z,1004.23
2023-03-06T05:37:10.481Z,1004.13
2023-03-06T05:37:40.366Z,1004.13
2023-03-06T05:38:12.017Z,1004.23
2023-03-06T05:38:42.347Z,1004.23
2023-03-06T05:39:14.039Z,1004.23
2023-03-06T05:39:44.414Z,1004.23
2023-03-06T05:40:16.483Z,1004.13
2023-03-06T05:40:47.284Z,1004.13
2023-03-06T05:41:19.046Z,1004.44
2023-03-06T05:41:48.360Z,1004.44
2023-03-06T05:42:20.011Z,1004.23
2023-03-06T05:42:50.395Z,1004.23
2023-03-06T05:43:22.059Z,1004.03
2023-03-06T05:43:52.329Z,1004.03
2023-03-06T05:44:24.030Z,1004.03
2023-03-06T05:44:54.350Z,1004.03
2023-03-06T05:45:27.141Z,1004.33
2023-03-06T05:45:56.434Z,1004.33
2023-03-06T05:46:29.530Z,1004.23
2023-03-06T05:46:58.663Z,1004.23
2023-03-06T05:47:30.062Z,1004.23
2023-03-06T05:48:00.967Z,1004.23
2023-03-06T05:48:32.032Z,1004.13
2023-03-06T05:49:02.455Z,1004.13
2023-03-06T05:49:34.201Z,1004.23
2023-03-06T05:50:04.517Z,1004.13
2023-03-06T05:50:37.145Z,1004.13
2023-03-06T05:51:06.476Z,1004.23
2023-03-06T05:51:39.241Z,1004.23
2023-03-06T05:52:08.488Z,1004.23
2023-03-06T05:52:40.243Z,1004.23
2023-03-06T05:53:10.498Z,1004.13
2023-03-06T05:53:42.361Z,1004.13
2023-03-06T05:54:12.572Z,1004.13
2023-03-06T05:54:44.233Z,1004.13
2023-03-06T05:55:14.891Z,1004.13
2023-03-06T05:55:46.178Z,1004.13
2023-03-06T05:56:16.492Z,1004.13
2023-03-06T05:56:49.198Z,1004.13
2023-03-06T05:57:20.168Z,1004.44
2023-03-06T05:57:50.197Z,1004.44
2023-03-06T05:58:20.500Z,1004.13
2023-03-06T05:58:52.208Z,1004.13
2023-03-06T05:59:22.489Z,1004.13
2023-03-06T05:59:54.217Z,1004.13
2023-03-06T06:00:25.329Z,1004.13
2023-03-06T06:00:58.589Z,1004.13
2023-03-06T06:01:27.225Z,1004.13
2023-03-06T06:01:59.304Z,1004.13
2023-03-06T06:02:28.535Z,1004.23
2023-03-06T06:03:00.265Z,1004.23
2023-03-06T06:03:30.599Z,1004.13
2023-03-06T06:04:02.720Z,1004.13
2023-03-06T06:04:32.509Z,1004.13
2023-03-06T06:05:04.297Z,1004.23
2023-03-06T06:05:35.493Z,1004.23
2023-03-06T06:06:06.220Z,1004.03
2023-03-06T06:06:36.523Z,1004.03
2023-03-06T06:07:09.233Z,1004.13
2023-03-06T06:07:38.775Z,1004.13
2023-03-06T06:08:10.814Z,1003.93
2023-03-06T06:08:40.490Z,1003.93
2023-03-06T06:09:13.908Z,1004.13
2023-03-06T06:09:42.541Z,1004.13
2023-03-06T06:10:14.617Z,1004.33
2023-03-06T06:10:44.482Z,1004.33
2023-03-06T06:11:16.166Z,1004.03
2023-03-06T06:11:46.554Z,1004.03
2023-03-06T06:12:18.513Z,1004.33
2023-03-06T06:12:49.197Z,1004.33
2023-03-06T06:13:19.474Z,1004.03
2023-03-06T06:13:51.202Z,1004.03
2023-03-06T06:14:21.520Z,1004.23
2023-03-06T06:14:53.356Z,1004.23